Siren, Wisconsin
Current Conditions -  °F | °C
As of 3:35 AM on Sunday 23 Nov 2014 (Local Time) from KRZN Reporting Station
Haze Haze  
Wind Chill: 38°   Ceiling: 500
Heat Index: 42°   Visibility: 3mi
Dew Point: 42°   Wind: 6mph
Humidity: 99%   Direction: 180°S
Pressure: 29.44"   Gusts: NA
Location:  45.79°N, 92.38°W
Report Text: KRZN 230935Z AUTO 18005KT 3SM BR OVC005 06/05 A2944 RMK AO2 T00560054
Loading
Personal Weather Stations






























Interactive Weather Map New forecast layout! Learn more

10-Day Weather Forecast

Advertisements
Track Severe Weather on mobile